Sedalia, IN (46067)

11:06 AM EST del 12 Febbraio 2016 (GMT -0500)
Little Lakes Estates | | Change Station
CLOSE
Current Station
Stazione meteo personale
Location: Frankfort, IN
Altitudine: 850 ft
Stazioni meteo nelle vicinanze

Alt. 850 ft 40.35 °N, 86.49 °W | Updated 12 seconds ago

Coperto
Coperto
24.3 °F
Sembra 19 °F
N
4.5
Vento Variabile Vento da SO
Gusts 4.5 mph

Oggi
Massima -- | Minima -- °F
--% Possibilità di precip.
Ieri
Massima -- | Minima -- °F
Precip. -- in
Pressione 30.16 in
Visibilità 4.0 miglia
Nuvole Coperto 1900 ft
Raffreddamento del vento 19 °F
Punto di rugiada 11 °F
Umidità 56%
Piovosità 0.00 in
Spessore del manto nevoso Non disponibile.
7:43 AM 6:17 PM
Luna crescente, 21% visible
METAR KGGP 121555Z AUTO 27010G16KT 4SM -SN OVC019 M05/M10 A3016 RMK AO2
Pressione 30.16 in
Visibilità 4.0 miglia
Nuvole Coperto 1900 ft
Raffreddamento del vento 19 °F
Punto di rugiada 11 °F
Umidità 56%
Piovosità 0.00 in
Spessore del manto nevoso Non disponibile.
7:43 AM 6:17 PM
Luna crescente, 21% visible
METAR KGGP 121555Z AUTO 27010G16KT 4SM -SN OVC019 M05/M10 A3016 RMK AO2

10-Day Weather Forecast

Almanac

Astronomia

Feb. 12, 2016 Alba Tramonto
Ora attuale
Crepuscolo civile
Crepuscolo nautico
Crepuscolo astronomico
Luna
Estensione della luce visibile
Lunghezza del giorno
Tomorrow will be .
, % of the Moon is Illuminated

Gli estremi di oggi

State Highs State Lows

Community

WunderPhotos

Upload Photos

1,892,345 foto caricate!

WunderBlog® & News

Nearby

Qualità dell'aria

  Qualità dell'aria Indice AQ Inquinante
Not available.

Profondità neve

Stazione Profondità Altitudine

Attività sismica

Città  Distanza Mag. Data & Ora
Minimo Magnitudo Mostrato è 2.5.

Temperature delle acque costiere

Località Temperatura

Stations

Stazioni meteo nelle vicinanze

Ubicazione della stazione Temp. Raffreddamento del vento Punto di rugiada Umidità Vento Precip. Alt. Aggiornato Tipo
                   

Watches & Warnings

There are currently no watches in effect.